createdAt,value
2023-01-17T17:56:50.317Z,97723.13
2023-01-17T18:01:30.517Z,97728.21
2023-01-17T18:06:09.177Z,97723.17
2023-01-17T18:10:26.911Z,97715.74
2023-01-17T18:14:55.806Z,97724.30
2023-01-17T18:19:20.903Z,97734.13
2023-01-17T18:23:24.757Z,97746.02
2023-01-17T18:27:28.062Z,97750.22
2023-01-17T18:31:31.708Z,97747.33
2023-01-17T18:35:40.059Z,97753.45
2023-01-17T18:44:36.153Z,97754.52
2023-01-17T18:53:04.319Z,97769.12
2023-01-17T18:57:07.421Z,97768.77
2023-01-17T19:01:17.050Z,97773.25
2023-01-17T19:05:21.681Z,97784.28
2023-01-17T19:09:24.467Z,97803.67
2023-01-17T19:13:27.412Z,97802.23
2023-01-17T19:17:30.330Z,97793.91
2023-01-17T19:21:33.452Z,97787.85
2023-01-17T19:25:37.210Z,97783.21
2023-01-17T19:29:40.143Z,97780.02
2023-01-17T19:33:45.240Z,97773.21
2023-01-17T19:37:51.334Z,97768.42
2023-01-17T19:41:54.233Z,97770.19
2023-01-17T19:46:00.848Z,97774.34
2023-01-17T19:50:04.788Z,97767.58
2023-01-17T19:54:08.582Z,97772.35
2023-01-17T19:58:13.191Z,97781.71
2023-01-17T20:02:17.047Z,97781.82
2023-01-17T20:06:23.131Z,97771.55
2023-01-17T20:10:26.356Z,97782.40
2023-01-17T20:14:29.647Z,97792.58
2023-01-17T20:18:34.315Z,97786.28
2023-01-17T20:22:37.167Z,97781.08
2023-01-17T20:26:41.318Z,97789.92
2023-01-17T20:30:45.657Z,97793.35
2023-01-17T20:34:48.622Z,97797.70
2023-01-17T20:38:51.652Z,97815.70
2023-01-17T20:42:54.687Z,97818.70
2023-01-17T20:46:57.670Z,97813.91
2023-01-17T20:51:07.771Z,97825.52
2023-01-17T20:55:10.664Z,97833.99
2023-01-17T20:59:17.217Z,97820.38
2023-01-17T21:03:20.209Z,97819.35
2023-01-17T21:07:23.032Z,97819.42
2023-01-17T21:11:27.758Z,97815.80
2023-01-17T21:15:30.581Z,97808.42
2023-01-17T21:19:33.552Z,97806.67
2023-01-17T21:23:37.476Z,97806.30
2023-01-17T21:27:40.359Z,97796.11
2023-01-17T21:31:43.652Z,97799.81
2023-01-17T21:35:46.873Z,97791.19
2023-01-17T21:39:54.751Z,97777.79
2023-01-17T21:44:01.151Z,97766.55
2023-01-17T21:48:04.560Z,97760.81
2023-01-17T21:52:09.115Z,97769.23
2023-01-17T21:56:32.308Z,97777.27
2023-01-17T22:00:35.291Z,97771.98
2023-01-17T22:04:38.174Z,97779.60
2023-01-17T22:08:41.347Z,97770.54
2023-01-17T22:12:44.103Z,97768.77
2023-01-17T22:16:47.038Z,97759.92
2023-01-17T22:20:49.969Z,97760.40
2023-01-17T22:24:53.110Z,97765.42
2023-01-17T22:28:59.313Z,97762.39
2023-01-17T22:33:02.292Z,97761.05
2023-01-17T22:37:10.009Z,97755.02
2023-01-17T22:41:20.132Z,97756.86
2023-01-17T22:45:24.309Z,97758.72
2023-01-17T22:49:27.236Z,97771.61
2023-01-17T22:53:30.962Z,97769.02
2023-01-17T22:57:34.076Z,97765.53
2023-01-17T23:01:39.553Z,97757.04
2023-01-17T23:05:46.749Z,97757.66
2023-01-17T23:09:49.563Z,97766.08
2023-01-17T23:13:53.576Z,97761.58
2023-01-17T23:18:15.140Z,97757.13
2023-01-17T23:22:23.665Z,97753.27
2023-01-17T23:26:26.412Z,97756.23
2023-01-17T23:30:35.781Z,97769.17
2023-01-17T23:34:38.604Z,97763.57
2023-01-17T23:38:44.179Z,97767.89
2023-01-17T23:43:05.703Z,97768.93
2023-01-17T23:47:08.609Z,97775.73
2023-01-17T23:51:11.461Z,97769.01
2023-01-17T23:55:14.487Z,97769.05
2023-01-17T23:59:17.382Z,97757.10
